Dk Ione — 3ETX — position and weather

sailwx.info

Track history (hours):
 
Tides and Currents Weather Stations Pressure Air Temp Water Temp Dewpoint Dewpoint Depression Visibility Wind Speed Wind Dir Waves Ship Positions

Dk Ione

Last reported at 2015-Jul-30 16:10 UTC. Time now 2015-Aug-01 03:32 UTC.
Position N 31°18' E 121°34'.

Length 196 m; draft 6.2 m.

Type: Cargo ship. MMSI: 353245000.

Date/timePositionNaut miles runAvg speedWind from/ knotsBaromVisibWave heightAir tempDewpointWater temp
2015-Jul-30 16:10N 31°18' E 121°34'0 0.6
2015-Jul-30 15:33N 31°18' E 121°34'0 0.2
2015-Jul-30 14:29N 31°18' E 121°34'0 0.0
2015-Jul-30 13:29N 31°18' E 121°34'0 0.0
2015-Jul-30 12:29N 31°18' E 121°34'0 0.0
2015-Jul-30 11:29N 31°18' E 121°34'0 0.0
2015-Jul-30 10:17N 31°18' E 121°34'0 0.0
2015-Jul-30 09:32N 31°18' E 121°34'0 0.0
2015-Jul-30 08:32N 31°18' E 121°34'0 0.0
2015-Jul-30 07:29N 31°18' E 121°34'0 0.0
2015-Jul-30 06:29N 31°18' E 121°34'3 2.9
2015-Jul-30 05:33N 31°21' E 121°32'3 3.3
2015-Jul-30 04:33N 31°24' E 121°34'1010.0
2015-Jul-30 03:34N 31°18' E 121°43'1514.9
2015-Jul-30 02:34N 31°08' E 121°56'1212.3
2015-Jul-30 01:34N 31°03' E 122°09'9 8.8
2015-Jul-30 00:33N 31°02' E 122°20'11 9.5
2015-Jul-29 23:24N 31°00' E 122°32'6 6.2
2015-Jul-29 22:25N 31°00' E 122°39'0 0.0
2015-Jul-29 21:19N 31°00' E 122°39'0 0.0
2015-Jul-29 19:31N 31°00' E 122°39'0 0.0
2015-Jul-29 18:28N 31°00' E 122°39'0 0.1
2015-Jul-29 17:31N 31°00' E 122°39'5 4.8
2015-Jul-29 16:34N 31°05' E 122°41'1110.6
2015-Jul-29 15:33N 31°13' E 122°49'1211.9
2015-Jul-29 14:33N 31°24' E 122°54'1111.6
2015-Jul-29 13:33N 31°35' E 122°54'1211.7
2015-Jul-29 12:33N 31°47' E 122°53'1211.6
2015-Jul-29 11:33N 31°59' E 122°51'1312.9
2015-Jul-29 10:33N 32°11' E 122°53'1413.8
2015-Jul-29 09:34N 32°25' E 122°55'1414.2
2015-Jul-29 08:34N 32°39' E 122°54'20311.3
2015-Jul-28 14:31N 34°48' E 119°45'15 2.1
2015-Jul-28 07:19N 34°44' E 119°27'0 0.0
2015-Jul-28 06:31N 34°44' E 119°27'0 0.0
2015-Jul-28 05:19N 34°44' E 119°27'0 0.0
2015-Jul-28 04:28N 34°44' E 119°27'0 0.0
2015-Jul-28 03:22N 34°44' E 119°27'0 0.0
2015-Jul-28 02:16N 34°44' E 119°27'0 0.0
2015-Jul-28 01:28N 34°44' E 119°27'0 0.0
2015-Jul-27 19:28N 34°44' E 119°27'0 0.0
2015-Jul-27 18:28N 34°44' E 119°27'0 0.0
2015-Jul-27 17:10N 34°44' E 119°27'0 0.0
2015-Jul-27 15:11N 34°44' E 119°27'0 0.0
2015-Jul-27 14:11N 34°44' E 119°27'0 0.0
2015-Jul-27 13:29N 34°44' E 119°27'0 0.0
2015-Jul-27 11:23N 34°44' E 119°27'0 0.0
2015-Jul-27 10:29N 34°44' E 119°27'0 0.0
2015-Jul-27 08:10N 34°44' E 119°27'0 0.0
2015-Jul-27 07:29N 34°44' E 119°27'0 0.0
2015-Jul-27 06:16N 34°44' E 119°27'0 0.0
2015-Jul-27 01:04N 34°44' E 119°27'0 0.0
2015-Jul-26 21:28N 34°44' E 119°27'0 0.0
2015-Jul-26 20:28N 34°44' E 119°27'0 0.0
2015-Jul-26 19:22N 34°44' E 119°27'0 0.0
2015-Jul-26 14:28N 34°44' E 119°27'0 0.0
2015-Jul-26 13:28N 34°44' E 119°27'0 0.0
2015-Jul-26 12:28N 34°44' E 119°27'0 0.0
2015-Jul-26 11:28N 34°44' E 119°27'0 0.0
2015-Jul-26 10:10N 34°44' E 119°27'0 0.0
2015-Jul-26 09:22N 34°44' E 119°27'0 0.0
2015-Jul-26 07:10N 34°44' E 119°27'0 0.0
2015-Jul-26 06:16N 34°44' E 119°27'0 0.0
2015-Jul-26 05:28N 34°44' E 119°27'0 0.0
2015-Jul-26 04:28N 34°44' E 119°27'0 0.0
2015-Jul-26 03:22N 34°44' E 119°27'0 0.0
2015-Jul-26 02:16N 34°44' E 119°27'0 0.0
2015-Jul-26 01:16N 34°44' E 119°27'0 0.0
2015-Jul-26 00:10N 34°44' E 119°27'0 0.0
2015-Jul-25 23:22N 34°44' E 119°27'0 0.0
2015-Jul-25 22:28N 34°44' E 119°27'0 0.0
2015-Jul-25 21:28N 34°44' E 119°27'0 0.0
2015-Jul-25 20:28N 34°44' E 119°27'0 0.0
2015-Jul-25 19:22N 34°44' E 119°27'0 0.0
2015-Jul-25 18:16N 34°44' E 119°27'0 0.0
2015-Jul-25 17:16N 34°44' E 119°27'0 0.0
2015-Jul-25 16:28N 34°44' E 119°27'0 0.0
2015-Jul-25 15:28N 34°44' E 119°27'0 0.0
2015-Jul-25 14:22N 34°44' E 119°27'0 0.0
2015-Jul-25 10:28N 34°44' E 119°27'0 0.0
2015-Jul-25 09:28N 34°44' E 119°27'0 0.0
2015-Jul-25 08:22N 34°44' E 119°27'0 0.0
2015-Jul-25 06:16N 34°44' E 119°27'0 0.0
2015-Jul-25 05:33N 34°44' E 119°27'6 5.7
2015-Jul-25 04:25N 34°46' E 119°35'8 9.2
2015-Jul-25 03:33N 34°51' E 119°42'0 0.1
2015-Jul-25 02:32N 34°51' E 119°42'0 0.0
2015-Jul-25 01:32N 34°51' E 119°42'0 0.1
2015-Jul-25 00:33N 34°51' E 119°42'0 0.1
2015-Jul-24 23:26N 34°51' E 119°42'0 0.1
2015-Jul-24 21:14N 34°51' E 119°43'0 0.0
2015-Jul-24 20:32N 34°51' E 119°43'0 0.0
2015-Jul-24 19:32N 34°51' E 119°43'0 0.0
2015-Jul-24 17:20N 34°51' E 119°43'1 0.4
2015-Jul-24 15:27N 34°51' E 119°43'910.4
2015-Jul-24 14:33N 34°55' E 119°54'1714.1
2015-Jul-24 13:21N 34°58' E 120°14'17911.8
2015-Jul-23 22:12N 32°57' E 122°54'1113.7
2015-Jul-23 21:25N 32°47' E 122°54'1213.5
2015-Jul-23 20:33N 32°35' E 122°54'9112.8
2015-Jul-23 13:26N 31°05' E 122°36'1112.7
2015-Jul-23 12:33N 31°06' E 122°23'1212.4
2015-Jul-23 11:34N 31°11' E 122°10'1313.0
2015-Jul-23 10:33N 31°15' E 121°56'1312.6
2015-Jul-23 09:33N 31°20' E 121°42'1010.0
2015-Jul-23 08:33N 31°25' E 121°32'9 8.9
2015-Jul-23 07:33N 31°31' E 121°24'1313.1
2015-Jul-23 06:33N 31°40' E 121°13'1514.2
2015-Jul-23 05:30N 31°47' E 120°57'1414.3
2015-Jul-23 04:33N 31°59' E 120°50'2 1.9
2015-Jul-23 03:15N 32°00' E 120°48'0 0.0
2015-Jul-23 01:33N 32°00' E 120°48'0 0.0
2015-Jul-23 00:33N 32°00' E 120°48'0 0.0
2015-Jul-22 23:33N 32°00' E 120°48'0 0.1
2015-Jul-22 22:21N 32°00' E 120°48'0 0.1
2015-Jul-22 21:27N 32°00' E 120°48'0 0.0
2015-Jul-22 20:27N 32°00' E 120°48'0 0.0
2015-Jul-22 19:27N 32°00' E 120°48'0 0.0
2015-Jul-22 18:27N 32°00' E 120°48'0 0.0
2015-Jul-22 17:33N 32°00' E 120°48'0 0.0
2015-Jul-22 16:33N 32°00' E 120°48'0 0.0
2015-Jul-22 15:33N 32°00' E 120°48'0 0.0
2015-Jul-22 14:33N 32°00' E 120°48'0 0.0
2015-Jul-22 13:23N 32°00' E 120°48'0 0.0
2015-Jul-22 12:27N 32°00' E 120°48'0 0.0
2015-Jul-22 11:20N 32°00' E 120°48'0 0.1
2015-Jul-22 10:33N 32°00' E 120°48'0 0.0
2015-Jul-22 08:33N 32°00' E 120°48'0 0.0
2015-Jul-22 06:23N 32°00' E 120°48'0 0.0
2015-Jul-22 05:33N 32°00' E 120°48'0 0.1
2015-Jul-22 04:33N 32°00' E 120°48'0 0.1
2015-Jul-22 03:27N 32°00' E 120°48'0 0.1
2015-Jul-22 02:27N 32°00' E 120°48'0 0.1
2015-Jul-22 01:33N 32°00' E 120°48'0 0.0
2015-Jul-22 00:32N 32°00' E 120°48'0 0.0
2015-Jul-21 23:32N 32°00' E 120°48'0 0.1
2015-Jul-21 22:33N 32°00' E 120°48'0 0.1
2015-Jul-21 21:33N 32°00' E 120°47'0 0.2
2015-Jul-21 20:33N 32°00' E 120°48'0 0.1
2015-Jul-21 19:32N 32°00' E 120°48'0 0.0
2015-Jul-21 18:32N 32°00' E 120°48'0 0.0
2015-Jul-21 17:32N 32°00' E 120°48'0 0.0
2015-Jul-21 16:32N 32°00' E 120°48'0 0.0
2015-Jul-21 15:26N 32°00' E 120°48'0 0.1
2015-Jul-21 14:33N 32°00' E 120°48'0 0.1
2015-Jul-21 13:33N 32°00' E 120°48'0 0.0
2015-Jul-21 12:33N 32°00' E 120°48'0 0.1
2015-Jul-21 11:29N 32°00' E 120°48'0 0.0
2015-Jul-21 10:21N 32°00' E 120°48'0 0.0
2015-Jul-21 09:32N 32°00' E 120°48'0 0.0
2015-Jul-21 08:23N 32°00' E 120°48'0 0.0
2015-Jul-21 07:21N 32°00' E 120°48'0 0.1
2015-Jul-21 06:33N 32°00' E 120°48'0 0.1
2015-Jul-21 05:20N 32°00' E 120°48'0 0.1
2015-Jul-21 04:29N 32°00' E 120°48'0 0.0
2015-Jul-21 03:21N 32°00' E 120°48'0 0.0
2015-Jul-21 02:32N 32°00' E 120°48'0 0.0
2015-Jul-21 01:23N 32°00' E 120°48'0 0.0
2015-Jul-21 00:26N 32°00' E 120°48'0 0.0
2015-Jul-20 23:29N 32°00' E 120°48'0 0.0
2015-Jul-20 22:27N 32°00' E 120°48'0 0.2
2015-Jul-20 21:32N 32°00' E 120°47'0 0.1
2015-Jul-20 20:32N 32°00' E 120°48'0 0.1
2015-Jul-20 19:32N 32°00' E 120°48'0 0.0
2015-Jul-20 18:33N 32°00' E 120°48'0 0.0
2015-Jul-20 17:33N 32°00' E 120°48'0 0.0
2015-Jul-20 16:33N 32°00' E 120°48'  
Track history (hours):
 
Tides and Currents Weather Stations Pressure Air Temp Water Temp Dewpoint Dewpoint Depression Visibility Wind Speed Wind Dir Waves Ship Positions

Dk Ione

Last reported at 2015-Jul-30 16:10 UTC. Time now 2015-Aug-01 03:32 UTC.
Position N 31°18' E 121°34'.

Length 196 m; draft 6.2 m.

Type: Cargo ship. MMSI: 353245000.

Date/timePositionNaut miles runAvg speedWind from/ knotsBaromVisibWave heightAir tempDewpointWater temp
2015-Jul-30 16:10N 31°18' E 121°34'0 0.6
2015-Jul-30 15:33N 31°18' E 121°34'0 0.2
2015-Jul-30 14:29N 31°18' E 121°34'0 0.0
2015-Jul-30 13:29N 31°18' E 121°34'0 0.0
2015-Jul-30 12:29N 31°18' E 121°34'0 0.0
2015-Jul-30 11:29N 31°18' E 121°34'0 0.0
2015-Jul-30 10:17N 31°18' E 121°34'0 0.0
2015-Jul-30 09:32N 31°18' E 121°34'0 0.0
2015-Jul-30 08:32N 31°18' E 121°34'0 0.0
2015-Jul-30 07:29N 31°18' E 121°34'0 0.0
2015-Jul-30 06:29N 31°18' E 121°34'3 2.9
2015-Jul-30 05:33N 31°21' E 121°32'3 3.3
2015-Jul-30 04:33N 31°24' E 121°34'1010.0
2015-Jul-30 03:34N 31°18' E 121°43'1514.9
2015-Jul-30 02:34N 31°08' E 121°56'1212.3
2015-Jul-30 01:34N 31°03' E 122°09'9 8.8
2015-Jul-30 00:33N 31°02' E 122°20'11 9.5
2015-Jul-29 23:24N 31°00' E 122°32'6 6.2
2015-Jul-29 22:25N 31°00' E 122°39'0 0.0
2015-Jul-29 21:19N 31°00' E 122°39'0 0.0
2015-Jul-29 19:31N 31°00' E 122°39'0 0.0
2015-Jul-29 18:28N 31°00' E 122°39'0 0.1
2015-Jul-29 17:31N 31°00' E 122°39'5 4.8
2015-Jul-29 16:34N 31°05' E 122°41'1110.6
2015-Jul-29 15:33N 31°13' E 122°49'1211.9
2015-Jul-29 14:33N 31°24' E 122°54'1111.6
2015-Jul-29 13:33N 31°35' E 122°54'1211.7
2015-Jul-29 12:33N 31°47' E 122°53'1211.6
2015-Jul-29 11:33N 31°59' E 122°51'1312.9
2015-Jul-29 10:33N 32°11' E 122°53'1413.8
2015-Jul-29 09:34N 32°25' E 122°55'1414.2
2015-Jul-29 08:34N 32°39' E 122°54'20311.3
2015-Jul-28 14:31N 34°48' E 119°45'15 2.1
2015-Jul-28 07:19N 34°44' E 119°27'0 0.0
2015-Jul-28 06:31N 34°44' E 119°27'0 0.0
2015-Jul-28 05:19N 34°44' E 119°27'0 0.0
2015-Jul-28 04:28N 34°44' E 119°27'0 0.0
2015-Jul-28 03:22N 34°44' E 119°27'0 0.0
2015-Jul-28 02:16N 34°44' E 119°27'0 0.0
2015-Jul-28 01:28N 34°44' E 119°27'0 0.0
2015-Jul-27 19:28N 34°44' E 119°27'0 0.0
2015-Jul-27 18:28N 34°44' E 119°27'0 0.0
2015-Jul-27 17:10N 34°44' E 119°27'0 0.0
2015-Jul-27 15:11N 34°44' E 119°27'0 0.0
2015-Jul-27 14:11N 34°44' E 119°27'0 0.0
2015-Jul-27 13:29N 34°44' E 119°27'0 0.0
2015-Jul-27 11:23N 34°44' E 119°27'0 0.0
2015-Jul-27 10:29N 34°44' E 119°27'0 0.0
2015-Jul-27 08:10N 34°44' E 119°27'0 0.0
2015-Jul-27 07:29N 34°44' E 119°27'0 0.0
2015-Jul-27 06:16N 34°44' E 119°27'0 0.0
2015-Jul-27 01:04N 34°44' E 119°27'0 0.0
2015-Jul-26 21:28N 34°44' E 119°27'0 0.0
2015-Jul-26 20:28N 34°44' E 119°27'0 0.0
2015-Jul-26 19:22N 34°44' E 119°27'0 0.0
2015-Jul-26 14:28N 34°44' E 119°27'0 0.0
2015-Jul-26 13:28N 34°44' E 119°27'0 0.0
2015-Jul-26 12:28N 34°44' E 119°27'0 0.0
2015-Jul-26 11:28N 34°44' E 119°27'0 0.0
2015-Jul-26 10:10N 34°44' E 119°27'0 0.0
2015-Jul-26 09:22N 34°44' E 119°27'0 0.0
2015-Jul-26 07:10N 34°44' E 119°27'0 0.0
2015-Jul-26 06:16N 34°44' E 119°27'0 0.0
2015-Jul-26 05:28N 34°44' E 119°27'0 0.0
2015-Jul-26 04:28N 34°44' E 119°27'0 0.0
2015-Jul-26 03:22N 34°44' E 119°27'0 0.0
2015-Jul-26 02:16N 34°44' E 119°27'0 0.0
2015-Jul-26 01:16N 34°44' E 119°27'0 0.0
2015-Jul-26 00:10N 34°44' E 119°27'0 0.0
2015-Jul-25 23:22N 34°44' E 119°27'0 0.0
2015-Jul-25 22:28N 34°44' E 119°27'0 0.0
2015-Jul-25 21:28N 34°44' E 119°27'0 0.0
2015-Jul-25 20:28N 34°44' E 119°27'0 0.0
2015-Jul-25 19:22N 34°44' E 119°27'0 0.0
2015-Jul-25 18:16N 34°44' E 119°27'0 0.0
2015-Jul-25 17:16N 34°44' E 119°27'0 0.0
2015-Jul-25 16:28N 34°44' E 119°27'0 0.0
2015-Jul-25 15:28N 34°44' E 119°27'0 0.0
2015-Jul-25 14:22N 34°44' E 119°27'0 0.0
2015-Jul-25 10:28N 34°44' E 119°27'0 0.0
2015-Jul-25 09:28N 34°44' E 119°27'0 0.0
2015-Jul-25 08:22N 34°44' E 119°27'0 0.0
2015-Jul-25 06:16N 34°44' E 119°27'0 0.0
2015-Jul-25 05:33N 34°44' E 119°27'6 5.7
2015-Jul-25 04:25N 34°46' E 119°35'8 9.2
2015-Jul-25 03:33N 34°51' E 119°42'0 0.1
2015-Jul-25 02:32N 34°51' E 119°42'0 0.0
2015-Jul-25 01:32N 34°51' E 119°42'0 0.1
2015-Jul-25 00:33N 34°51' E 119°42'0 0.1
2015-Jul-24 23:26N 34°51' E 119°42'0 0.1
2015-Jul-24 21:14N 34°51' E 119°43'0 0.0
2015-Jul-24 20:32N 34°51' E 119°43'0 0.0
2015-Jul-24 19:32N 34°51' E 119°43'0 0.0
2015-Jul-24 17:20N 34°51' E 119°43'1 0.4
2015-Jul-24 15:27N 34°51' E 119°43'910.4
2015-Jul-24 14:33N 34°55' E 119°54'1714.1
2015-Jul-24 13:21N 34°58' E 120°14'17911.8
2015-Jul-23 22:12N 32°57' E 122°54'1113.7
2015-Jul-23 21:25N 32°47' E 122°54'1213.5
2015-Jul-23 20:33N 32°35' E 122°54'9112.8
2015-Jul-23 13:26N 31°05' E 122°36'1112.7
2015-Jul-23 12:33N 31°06' E 122°23'1212.4
2015-Jul-23 11:34N 31°11' E 122°10'1313.0
2015-Jul-23 10:33N 31°15' E 121°56'1312.6
2015-Jul-23 09:33N 31°20' E 121°42'1010.0
2015-Jul-23 08:33N 31°25' E 121°32'9 8.9
2015-Jul-23 07:33N 31°31' E 121°24'1313.1
2015-Jul-23 06:33N 31°40' E 121°13'1514.2
2015-Jul-23 05:30N 31°47' E 120°57'1414.3
2015-Jul-23 04:33N 31°59' E 120°50'2 1.9
2015-Jul-23 03:15N 32°00' E 120°48'0 0.0
2015-Jul-23 01:33N 32°00' E 120°48'0 0.0
2015-Jul-23 00:33N 32°00' E 120°48'0 0.0
2015-Jul-22 23:33N 32°00' E 120°48'0 0.1
2015-Jul-22 22:21N 32°00' E 120°48'0 0.1
2015-Jul-22 21:27N 32°00' E 120°48'0 0.0
2015-Jul-22 20:27N 32°00' E 120°48'0 0.0
2015-Jul-22 19:27N 32°00' E 120°48'0 0.0
2015-Jul-22 18:27N 32°00' E 120°48'0 0.0
2015-Jul-22 17:33N 32°00' E 120°48'0 0.0
2015-Jul-22 16:33N 32°00' E 120°48'0 0.0
2015-Jul-22 15:33N 32°00' E 120°48'0 0.0
2015-Jul-22 14:33N 32°00' E 120°48'0 0.0
2015-Jul-22 13:23N 32°00' E 120°48'0 0.0
2015-Jul-22 12:27N 32°00' E 120°48'0 0.0
2015-Jul-22 11:20N 32°00' E 120°48'0 0.1
2015-Jul-22 10:33N 32°00' E 120°48'0 0.0
2015-Jul-22 08:33N 32°00' E 120°48'0 0.0
2015-Jul-22 06:23N 32°00' E 120°48'0 0.0
2015-Jul-22 05:33N 32°00' E 120°48'0 0.1
2015-Jul-22 04:33N 32°00' E 120°48'0 0.1
2015-Jul-22 03:27N 32°00' E 120°48'0 0.1
2015-Jul-22 02:27N 32°00' E 120°48'0 0.1
2015-Jul-22 01:33N 32°00' E 120°48'0 0.0
2015-Jul-22 00:32N 32°00' E 120°48'0 0.0
2015-Jul-21 23:32N 32°00' E 120°48'0 0.1
2015-Jul-21 22:33N 32°00' E 120°48'0 0.1
2015-Jul-21 21:33N 32°00' E 120°47'0 0.2
2015-Jul-21 20:33N 32°00' E 120°48'0 0.1
2015-Jul-21 19:32N 32°00' E 120°48'0 0.0
2015-Jul-21 18:32N 32°00' E 120°48'0 0.0
2015-Jul-21 17:32N 32°00' E 120°48'0 0.0
2015-Jul-21 16:32N 32°00' E 120°48'0 0.0
2015-Jul-21 15:26N 32°00' E 120°48'0 0.1
2015-Jul-21 14:33N 32°00' E 120°48'0 0.1
2015-Jul-21 13:33N 32°00' E 120°48'0 0.0
2015-Jul-21 12:33N 32°00' E 120°48'0 0.1
2015-Jul-21 11:29N 32°00' E 120°48'0 0.0
2015-Jul-21 10:21N 32°00' E 120°48'0 0.0
2015-Jul-21 09:32N 32°00' E 120°48'0 0.0
2015-Jul-21 08:23N 32°00' E 120°48'0 0.0
2015-Jul-21 07:21N 32°00' E 120°48'0 0.1
2015-Jul-21 06:33N 32°00' E 120°48'0 0.1
2015-Jul-21 05:20N 32°00' E 120°48'0 0.1
2015-Jul-21 04:29N 32°00' E 120°48'0 0.0
2015-Jul-21 03:21N 32°00' E 120°48'0 0.0
2015-Jul-21 02:32N 32°00' E 120°48'0 0.0
2015-Jul-21 01:23N 32°00' E 120°48'0 0.0
2015-Jul-21 00:26N 32°00' E 120°48'0 0.0
2015-Jul-20 23:29N 32°00' E 120°48'0 0.0
2015-Jul-20 22:27N 32°00' E 120°48'0 0.2
2015-Jul-20 21:32N 32°00' E 120°47'0 0.1
2015-Jul-20 20:32N 32°00' E 120°48'0 0.1
2015-Jul-20 19:32N 32°00' E 120°48'0 0.0
2015-Jul-20 18:33N 32°00' E 120°48'0 0.0
2015-Jul-20 17:33N 32°00' E 120°48'0 0.0
2015-Jul-20 16:33N 32°00' E 120°48'  

Dump ship's entire track history